Time;durP1;ratioP1;P1;durP2;ratioP2;P2;SDS_P1;SDS_P2;PMS_P1;PMS_P2;Temp;Humidity;BMP_temperature;BMP_pressure;BME280_temperature;BME280_humidity;BME280_pressure;Samples;Min_cycle;Max_cycle;Signal;HPM_P1;HPM_P2
2022/10/06 00:06:00;;;;;;;9.33;5.70;;;;;;;15.61;66.52;99758.50;4273996;81;28539;-81
2022/10/06 00:12:02;;;;;;;9.25;6.03;;;;;;;15.41;67.73;99764.94;4270319;81;28491;-81
2022/10/06 00:18:04;;;;;;;10.68;6.30;;;;;;;15.62;67.52;99771.53;4270112;81;28540;-82
2022/10/06 00:24:05;;;;;;;9.93;6.17;;;;;;;15.51;66.98;99766.98;4271803;81;28466;-82
2022/10/06 00:30:14;;;;;;;11.68;6.47;;;;;;;15.45;66.77;99770.14;4333458;81;28550;-82
2022/10/06 00:36:16;;;;;;;10.48;6.20;;;;;;;15.26;66.60;99766.34;4294942;81;28500;-82
2022/10/06 00:42:27;;;;;;;14.25;6.65;;;;;;;14.92;67.71;99781.13;4271565;81;28478;-81
2022/10/06 00:48:30;;;;;;;13.32;6.83;;;;;;;15.07;67.31;99785.22;4269520;81;29031;-81
2022/10/06 00:54:33;;;;;;;11.30;6.55;;;;;;;15.08;67.14;99790.37;4279051;81;28535;-81
2022/10/06 01:00:34;;;;;;;12.03;6.10;;;;;;;15.04;66.60;99796.80;4288773;82;28468;-81
2022/10/06 01:06:48;;;;;;;13.10;7.95;;;;;;;14.90;65.53;99807.63;4278917;81;28546;-81
2022/10/06 01:12:50;;;;;;;10.40;6.47;;;;;;;14.85;66.41;99807.00;4285760;80;28545;-83
2022/10/06 01:18:54;;;;;;;11.00;6.87;;;;;;;14.80;65.92;99819.61;4278084;81;28491;-82
2022/10/06 01:24:56;;;;;;;11.88;7.15;;;;;;;14.75;66.12;99814.92;4270533;81;28546;-82
2022/10/06 01:31:00;;;;;;;14.13;7.40;;;;;;;14.79;65.78;99828.28;4334817;81;28602;-82
2022/10/06 01:37:02;;;;;;;13.53;7.50;;;;;;;14.70;66.01;99835.09;4289817;81;28546;-81
2022/10/06 01:43:03;;;;;;;11.18;6.67;;;;;;;14.59;66.03;99840.30;4251596;82;28526;-81
2022/10/06 01:49:04;;;;;;;13.70;7.30;;;;;;;14.56;65.53;99844.81;4233873;83;28537;-81
2022/10/06 01:55:07;;;;;;;13.72;7.12;;;;;;;14.48;65.66;99847.91;4231691;83;28514;-81
2022/10/06 02:01:09;;;;;;;10.20;6.42;;;;;;;14.47;65.30;99847.06;4235961;81;28579;-82
2022/10/06 02:07:11;;;;;;;11.08;6.50;;;;;;;14.42;65.33;99848.84;4272887;82;28575;-81
2022/10/06 02:13:17;;;;;;;12.75;6.70;;;;;;;14.28;64.55;99846.91;4227469;81;28487;-82
2022/10/06 02:19:19;;;;;;;9.20;6.60;;;;;;;13.89;64.95;99860.33;4206483;82;28483;-82
2022/10/06 02:25:21;;;;;;;10.08;6.20;;;;;;;13.94;67.39;99857.77;4229596;82;28563;-80
2022/10/06 02:31:23;;;;;;;11.20;6.50;;;;;;;14.02;67.32;99857.94;4229673;82;28481;-81
2022/10/06 02:37:25;;;;;;;8.58;5.80;;;;;;;13.89;67.28;99859.52;4232623;82;28556;-81
2022/10/06 02:43:28;;;;;;;11.20;6.10;;;;;;;13.51;70.19;99862.91;4229409;82;28617;-81
2022/10/06 02:49:30;;;;;;;11.03;6.28;;;;;;;13.86;68.50;99859.45;4229800;82;28525;-81
2022/10/06 02:55:32;;;;;;;10.80;6.22;;;;;;;13.91;66.39;99858.75;4230243;82;28499;-83
2022/10/06 03:01:34;;;;;;;9.63;5.62;;;;;;;13.78;66.15;99866.55;4229701;83;28565;-83
2022/10/06 03:07:37;;;;;;;12.68;5.92;;;;;;;13.65;68.29;99867.05;4232982;82;28533;-83
2022/10/06 03:13:40;;;;;;;12.95;6.37;;;;;;;13.61;69.34;99874.49;4255506;82;28496;-83
2022/10/06 03:19:42;;;;;;;12.95;6.15;;;;;;;13.61;68.85;99877.20;4229769;82;28543;-83
2022/10/06 03:25:55;;;;;;;11.85;5.90;;;;;;;13.52;69.31;99881.56;4229450;82;28489;-80
2022/10/06 03:31:57;;;;;;;12.45;6.25;;;;;;;13.68;67.03;99882.50;4230901;82;28602;-81
2022/10/06 03:37:59;;;;;;;11.12;5.58;;;;;;;13.65;66.20;99877.05;4252389;82;28491;-83
2022/10/06 03:44:02;;;;;;;12.00;5.80;;;;;;;13.52;66.31;99880.22;4251783;82;28580;-82
2022/10/06 03:50:07;;;;;;;9.90;5.85;;;;;;;13.63;66.08;99877.78;4278419;81;28522;-82
2022/10/06 03:56:13;;;;;;;8.53;5.37;;;;;;;13.58;65.67;99882.52;4267932;81;28569;-82
2022/10/06 04:02:14;;;;;;;;;;;;;;;13.47;65.23;99881.45;4293176;81;28538;-81
2022/10/06 04:08:16;;;;;;;11.05;5.90;;;;;;;13.38;65.11;99879.58;4322113;81;20215;-81
2022/10/06 04:14:17;;;;;;;10.23;5.80;;;;;;;13.45;65.79;99882.73;4306133;81;28625;-80
2022/10/06 04:20:20;;;;;;;11.73;5.70;;;;;;;13.41;65.70;99883.67;4315609;81;28720;-79
2022/10/06 04:26:24;;;;;;;11.95;6.40;;;;;;;13.45;66.27;99885.42;4321530;81;28538;-80
2022/10/06 04:32:28;;;;;;;12.82;6.60;;;;;;;13.35;66.18;99887.31;4296531;81;28549;-84
2022/10/06 04:38:35;;;;;;;12.98;6.78;;;;;;;13.41;65.72;99889.63;4234239;82;28511;-83
2022/10/06 04:44:38;;;;;;;10.58;6.33;;;;;;;13.33;66.24;99895.63;4250071;81;28519;-83
2022/10/06 04:50:40;;;;;;;10.72;6.08;;;;;;;13.38;65.61;99902.53;4261670;82;28506;-85
2022/10/06 04:56:43;;;;;;;11.70;6.37;;;;;;;13.53;65.92;99900.77;4251797;82;28528;-84
2022/10/06 05:02:45;;;;;;;11.03;5.95;;;;;;;13.56;64.91;99906.25;4246925;81;28612;-82
2022/10/06 05:08:51;;;;;;;12.10;6.30;;;;;;;13.55;65.30;99910.55;4254582;82;28485;-80
2022/10/06 05:14:53;;;;;;;;;;;;;;;13.60;64.80;99914.22;4231935;82;28539;-82
2022/10/06 05:20:58;;;;;;;16.57;8.40;;;;;;;13.81;68.45;99920.16;4231094;82;20254;-82
2022/10/06 05:27:02;;;;;;;16.62;9.38;;;;;;;13.93;69.04;99923.70;4252220;81;28501;-83
2022/10/06 05:33:03;;;;;;;15.00;8.00;;;;;;;14.18;69.36;99913.21;4253059;81;28526;-83
2022/10/06 05:39:04;;;;;;;18.02;8.00;;;;;;;14.33;66.58;99923.58;4288121;81;28486;-82
2022/10/06 05:45:09;;;;;;;17.98;8.60;;;;;;;14.38;66.19;99930.19;4275399;82;28578;-80
2022/10/06 05:51:10;;;;;;;14.90;7.53;;;;;;;14.45;66.91;99931.70;4282970;81;28487;-81
2022/10/06 05:57:13;;;;;;;18.62;9.78;;;;;;;14.61;67.15;99934.75;4259448;81;28499;-85
2022/10/06 06:03:15;;;;;;;15.38;8.68;;;;;;;14.69;68.92;99934.95;4261382;81;28542;-84
2022/10/06 06:09:19;;;;;;;15.65;8.88;;;;;;;14.95;68.72;99948.55;4269961;81;28543;-83
2022/10/06 06:21:43;;;;;;;14.70;8.60;;;;;;;15.48;70.14;99970.20;4284533;81;28513;-83
2022/10/06 06:27:48;;;;;;;17.40;9.55;;;;;;;15.65;71.90;99972.97;4277072;81;28512;-83
2022/10/06 06:33:55;;;;;;;16.57;9.48;;;;;;;15.89;73.06;99985.89;4268976;81;28590;-84
2022/10/06 06:39:58;;;;;;;18.55;9.75;;;;;;;16.14;73.11;99994.73;4267255;82;28623;-83
2022/10/06 06:46:03;;;;;;;16.50;9.50;;;;;;;16.38;74.87;99985.11;4260101;82;28577;-84
2022/10/06 06:52:24;;;;;;;17.92;10.23;;;;;;;16.50;75.17;99999.42;4282642;82;28582;-84
2022/10/06 06:58:26;;;;;;;22.15;10.75;;;;;;;16.88;73.23;100009.22;4269128;82;28570;-85
2022/10/06 07:04:31;;;;;;;21.55;10.32;;;;;;;17.12;74.25;100019.38;4248575;82;28538;-85
2022/10/06 07:10:35;;;;;;;18.73;9.80;;;;;;;17.27;74.98;100030.16;4267905;82;28465;-85
2022/10/06 07:29:20;;;;;;;22.60;11.35;;;;;;;17.91;75.18;100053.77;4224507;83;28556;-85
2022/10/06 07:35:26;;;;;;;22.52;11.40;;;;;;;18.07;75.62;100062.95;4229595;82;28549;-85
2022/10/06 07:41:30;;;;;;;18.77;10.23;;;;;;;18.21;73.77;100056.56;4208339;82;28511;-86
2022/10/06 07:47:36;;;;;;;18.37;10.03;;;;;;;18.51;74.38;100059.30;4272661;82;28464;-86
2022/10/06 07:53:40;;;;;;;20.57;10.08;;;;;;;18.68;75.56;100068.69;4222138;83;28531;-86
2022/10/06 07:59:44;;;;;;;15.85;8.40;;;;;;;18.93;73.75;100072.67;4258799;82;28556;-86
2022/10/06 08:05:50;;;;;;;17.32;8.43;;;;;;;19.31;71.97;100080.84;4206806;83;28493;-85
2022/10/06 08:11:52;;;;;;;17.48;7.90;;;;;;;19.45;69.03;100082.03;4209974;82;28526;-85
2022/10/06 08:17:53;;;;;;;16.02;7.62;;;;;;;19.68;68.59;100099.58;4277121;82;28467;-86
2022/10/06 08:23:58;;;;;;;16.10;8.08;;;;;;;20.09;67.69;100104.41;4277098;82;28536;-86
2022/10/06 08:29:59;;;;;;;15.90;7.97;;;;;;;20.31;67.53;100100.91;4275659;82;28591;-86
2022/10/06 08:36:18;;;;;;;14.43;7.28;;;;;;;20.18;65.60;100119.98;4295684;81;28553;-85
2022/10/06 08:42:26;;;;;;;12.75;6.58;;;;;;;;;;4314180;81;28523;-85
2022/10/06 08:48:37;;;;;;;11.40;6.28;;;;;;;21.52;63.89;100125.20;4265361;82;28482;-86
2022/10/06 08:54:52;;;;;;;10.65;6.05;;;;;;;22.23;61.57;100122.48;4228907;82;28576;-85
2022/10/06 09:00:55;;;;;;;7.28;4.40;;;;;;;23.09;60.25;100123.22;4229857;83;28465;-86
2022/10/06 09:07:05;;;;;;;7.40;4.62;;;;;;;23.50;59.07;100128.32;4229932;83;28525;-85
2022/10/06 09:13:11;;;;;;;9.15;4.17;;;;;;;23.49;59.00;100136.30;4245387;83;28531;-85
2022/10/06 09:19:25;;;;;;;5.90;3.98;;;;;;;23.99;57.58;100138.45;4228859;82;28655;-86
2022/10/06 09:25:30;;;;;;;6.22;3.85;;;;;;;23.83;57.65;100150.19;4228963;83;28501;-85
2022/10/06 09:31:49;;;;;;;7.62;4.12;;;;;;;23.72;57.44;100156.38;4209071;83;28557;-85
2022/10/06 09:37:58;;;;;;;5.67;4.10;;;;;;;24.04;56.59;100157.66;4205787;82;28518;-85
2022/10/06 09:44:04;;;;;;;7.78;4.45;;;;;;;24.51;56.52;100150.39;4274211;81;28527;-86
2022/10/06 09:50:22;;;;;;;6.60;4.12;;;;;;;24.50;56.00;100151.51;4227720;83;28524;-86
2022/10/06 09:56:28;;;;;;;7.92;4.35;;;;;;;24.26;57.01;100163.14;4241875;83;28616;-86
2022/10/06 10:03:18;;;;;;;;;;;;;;;;;;;;;
2022/10/06 10:09:22;;;;;;;6.53;3.50;;;;;;;23.72;58.22;100168.72;4246228;82;28762;-86
2022/10/06 10:15:30;;;;;;;7.03;3.02;;;;;;;23.80;57.49;100180.44;4202879;83;28471;-86
2022/10/06 10:21:33;;;;;;;6.90;2.90;;;;;;;24.19;57.76;100172.55;4201029;83;28586;-86
2022/10/06 10:28:16;;;;;;;8.18;3.37;;;;;;;24.22;56.89;100172.52;4261829;82;28467;-86
2022/10/06 10:34:28;;;;;;;4.67;2.65;;;;;;;24.07;57.02;100176.28;4252931;82;28518;-86
2022/10/06 10:40:52;;;;;;;6.10;2.80;;;;;;;24.40;57.23;100163.23;4216423;82;28528;-86
2022/10/06 10:46:57;;;;;;;5.30;2.77;;;;;;;24.23;57.37;100158.50;4227992;83;28507;-85
2022/10/06 10:53:14;;;;;;;4.83;3.15;;;;;;;24.44;56.95;100157.38;4226882;83;28536;-85
2022/10/06 10:59:32;;;;;;;4.90;2.72;;;;;;;24.46;57.19;100161.48;4227207;83;28532;-85
2022/10/06 11:05:57;;;;;;;4.22;2.70;;;;;;;24.25;57.06;100162.88;4229017;82;28477;-85
2022/10/06 11:12:28;;;;;;;4.70;2.83;;;;;;;24.56;57.12;100159.13;4243456;83;28532;-86
2022/10/06 11:19:27;;;;;;;7.72;3.27;;;;;;;24.54;56.72;100166.85;4181637;82;28560;-86
2022/10/06 11:26:23;;;;;;;6.10;3.62;;;;;;;24.26;57.63;100180.42;4228683;83;28580;-85
2022/10/06 11:32:52;;;;;;;6.47;3.37;;;;;;;24.17;56.88;100184.97;4227768;82;28536;-84
2022/10/06 11:39:08;;;;;;;6.55;3.60;;;;;;;24.41;56.53;100189.02;4240905;82;28528;-86
2022/10/06 11:45:15;;;;;;;4.33;3.30;;;;;;;24.32;56.98;100179.83;4243577;82;28526;-84
2022/10/06 11:51:29;;;;;;;7.00;3.25;;;;;;;24.97;56.39;100163.20;4227439;82;28932;-86
2022/10/06 11:57:34;;;;;;;5.17;3.10;;;;;;;25.11;56.11;100164.62;4238911;81;28515;-83
2022/10/06 12:12:14;;;;;;;;;;;;;;;;;;;;;
2022/10/06 12:26:24;;;;;;;6.97;3.62;;;;;;;25.89;53.85;100187.43;3942235;89;28589;-85
2022/10/06 12:32:54;;;;;;;7.80;3.50;;;;;;;26.47;52.81;100197.27;3942777;88;28541;-84
2022/10/06 12:39:22;;;;;;;6.95;3.58;;;;;;;27.08;51.78;100199.17;4046780;84;28544;-85
2022/10/06 12:45:27;;;;;;;5.65;2.95;;;;;;;27.41;51.96;100204.95;4276075;82;28566;-84
2022/10/06 12:51:43;;;;;;;11.57;3.47;;;;;;;27.08;51.20;100205.25;4291967;81;28559;-84
2022/10/06 12:57:52;;;;;;;6.10;3.60;;;;;;;27.35;50.63;100200.72;4274872;82;28526;-83
2022/10/06 13:03:58;;;;;;;5.97;3.70;;;;;;;27.68;51.38;100208.70;4275996;82;28507;-84
2022/10/06 13:10:16;;;;;;;7.40;3.67;;;;;;;27.16;52.59;100191.24;4235452;82;28481;-85
2022/10/06 13:16:28;;;;;;;6.12;3.35;;;;;;;26.96;53.06;100193.38;4291891;81;28561;-84
2022/10/06 13:22:32;;;;;;;4.20;3.00;;;;;;;26.51;52.60;100201.05;4189743;84;28465;-85
2022/10/06 13:28:48;;;;;;;9.25;3.20;;;;;;;25.92;53.61;100194.82;4257211;82;28890;-84
2022/10/06 13:34:51;;;;;;;5.37;3.17;;;;;;;26.40;53.31;100201.83;4207800;83;28521;-85
2022/10/06 13:41:18;;;;;;;6.72;3.60;;;;;;;26.35;53.72;100198.62;4218503;82;28556;-86
2022/10/06 13:47:23;;;;;;;5.35;3.05;;;;;;;26.56;53.40;100205.05;4224957;82;28468;-86
2022/10/06 13:53:32;;;;;;;7.83;3.33;;;;;;;26.42;53.20;100209.22;4179068;83;28541;-85
2022/10/06 13:59:39;;;;;;;6.28;3.33;;;;;;;26.56;53.39;100207.81;4176145;83;28508;-85
2022/10/06 14:05:44;;;;;;;7.35;3.27;;;;;;;26.43;53.28;100214.44;4212484;83;28496;-84
2022/10/06 14:11:46;;;;;;;4.67;3.00;;;;;;;26.87;52.84;100208.48;4185564;83;28481;-84
2022/10/06 14:17:56;;;;;;;8.03;3.20;;;;;;;27.17;52.53;100221.30;4207597;84;28484;-85
2022/10/06 14:23:59;;;;;;;4.45;2.85;;;;;;;27.24;52.52;100227.20;4207078;83;28507;-85
2022/10/06 14:30:03;;;;;;;4.95;2.98;;;;;;;26.33;52.70;100235.33;4207682;83;28506;-86
2022/10/06 14:36:04;;;;;;;5.92;3.00;;;;;;;27.16;52.02;100237.61;4228338;81;28493;-85
2022/10/06 14:42:06;;;;;;;6.60;3.20;;;;;;;27.35;52.07;100240.16;4245433;82;28681;-85
2022/10/06 14:48:08;;;;;;;6.20;3.60;;;;;;;27.22;52.73;100245.20;4245360;82;28579;-85
2022/10/06 14:54:11;;;;;;;6.22;3.50;;;;;;;26.80;52.93;100243.39;4244921;82;28594;-85
2022/10/06 15:00:15;;;;;;;5.25;2.85;;;;;;;26.85;53.07;100252.92;4249561;82;28523;-84
2022/10/06 15:12:40;;;;;;;6.53;3.50;;;;;;;27.04;52.18;100260.83;4242420;82;28543;-84
2022/10/06 15:18:44;;;;;;;4.92;3.47;;;;;;;26.92;52.85;100266.34;4245348;82;28524;-85
2022/10/06 15:24:49;;;;;;;9.30;4.00;;;;;;;26.56;53.48;100263.80;4245635;82;28437;-85
2022/10/06 15:30:50;;;;;;;8.43;4.05;;;;;;;26.62;53.61;100265.88;4270867;82;28629;-86
2022/10/06 15:36:56;;;;;;;7.35;3.55;;;;;;;26.80;53.63;100274.29;4234087;82;28529;-86
2022/10/06 15:42:58;;;;;;;7.85;4.03;;;;;;;26.57;54.26;100277.00;4233662;82;28518;-85
2022/10/06 15:56:09;;;;;;;6.62;3.70;;;;;;;26.54;54.65;100289.46;4411520;77;28636;-87
2022/10/06 16:22:59;;;;;;;11.88;3.92;;;;;;;25.25;60.20;100308.30;4142642;84;28658;-82
2022/10/06 16:29:00;;;;;;;7.95;3.55;;;;;;;24.99;61.17;100311.42;4257128;78;28595;-78
2022/10/06 16:35:05;;;;;;;8.33;3.65;;;;;;;24.87;61.38;100325.64;4431643;78;28547;-80
2022/10/06 16:41:07;;;;;;;8.28;3.95;;;;;;;24.87;61.54;100335.27;4412392;79;28544;-77
2022/10/06 16:47:10;;;;;;;8.18;4.90;;;;;;;24.71;61.83;100338.74;4415951;79;28579;-80
2022/10/06 16:53:11;;;;;;;9.75;4.53;;;;;;;24.30;62.56;100344.98;4397775;79;28496;-79
2022/10/06 16:59:22;;;;;;;9.50;4.87;;;;;;;24.29;62.53;100356.26;4442109;78;28573;-80
2022/10/06 17:05:24;;;;;;;8.03;5.15;;;;;;;24.00;63.36;100373.55;4375712;79;28498;-83
